Hadar, Nebraska
Current Conditions -  °F | °C
As of 12:56 AM on Sunday 26 Oct 2014 (Local Time) from KOFK Reporting Station
Clear Clear  
Wind Chill: 50°   Ceiling: Unl
Heat Index: 50°   Visibility: 10mi
Dew Point: 38°   Wind: 9mph
Humidity: 63%   Direction: 130°SE
Pressure: 29.98"   Gusts: NA
Location:  42.11°N, 97.45°W
Report Text: KOFK 260556Z AUTO 13008KT 10SM CLR 10/03 A2998 RMK AO2 SLP149 T01000033 10150 20094 402170056 58017
Loading
Personal Weather Stations






























Interactive Weather Map
Tropical Storm Tracking
New forecast layout! Learn more

10-Day Weather Forecast

Advertisements
Track Severe Weather on mobile